Terminal Aerodrome Forecast
Issued by NWS

Home | Current Version | Previous Version | Text Only | Print | Product List | Glossary On
Versions: 1 2 3 4 5 6 7 8 9 10 11 12 13 14 15 16 17 18 19 20 21 22 23 24 25 26 27 28 29 30
000
FTUS41 KCAR 022300
TAFHUL
TAF
KHUL 022321Z 0300/0324 17009KT P6SM VCSH SCT015 OVC025
     FM030300 18009KT 5SM -SHRA BR BKN008 OVC015
     FM030500 20006KT 2SM SHRA BR VCTS BKN005CB OVC010
     FM030700 21005KT 1SM SHRA BR OVC003
     FM031100 28006KT 5SM BR VCSH BKN005 OVC010
     FM031300 30007KT P6SM BKN018
     FM031600 31009KT P6SM BKN035
     FM032000 30008KT P6SM SCT050=

USA.gov is the U.S. government's official web portal to all federal, state and local government web resources and services.